createdAt,value
2017-02-09T00:06:59.595Z,1018.1
2017-02-09T00:17:11.926Z,1018
2017-02-09T00:27:24.331Z,1018.1
2017-02-09T00:37:36.676Z,1018.1
2017-02-09T00:47:49.063Z,1018.1
2017-02-09T00:58:01.424Z,1018.1
2017-02-09T01:08:13.788Z,1018.2
2017-02-09T01:18:26.197Z,1018.3
2017-02-09T01:28:38.537Z,1018.3
2017-02-09T01:38:50.851Z,1018.3
2017-02-09T01:49:03.281Z,1018.3
2017-02-09T01:59:15.733Z,1018.3
2017-02-09T02:09:28.154Z,1018.3
2017-02-09T02:19:40.541Z,1018.3
2017-02-09T02:29:52.987Z,1018.3
2017-02-09T02:40:05.382Z,1018.4
2017-02-09T02:50:17.799Z,1018.4
2017-02-09T03:00:30.225Z,1018.4
2017-02-09T03:10:42.548Z,1018.4
2017-02-09T03:20:54.986Z,1018.4
2017-02-09T03:31:07.381Z,1018.3
2017-02-09T03:41:19.733Z,1018.4
2017-02-09T03:51:32.081Z,1018.4
2017-02-09T04:01:44.488Z,1018.5
2017-02-09T04:11:56.881Z,1018.5
2017-02-09T04:22:09.283Z,1018.4
2017-02-09T04:32:21.695Z,1018.5
2017-02-09T04:42:34.108Z,1018.5
2017-02-09T04:52:46.547Z,1018.6
2017-02-09T05:02:59.075Z,1018.6
2017-02-09T05:13:11.540Z,1018.6
2017-02-09T05:23:24.053Z,1018.6
2017-02-09T05:33:36.549Z,1018.7
2017-02-09T05:43:49.018Z,1018.6
2017-02-09T05:54:01.504Z,1018.6
2017-02-09T06:04:13.993Z,1018.7
2017-02-09T06:14:26.513Z,1018.7
2017-02-09T06:24:39.013Z,1018.7
2017-02-09T06:34:51.562Z,1018.7
2017-02-09T06:45:04.076Z,1018.8
2017-02-09T06:55:16.576Z,1018.8
2017-02-09T07:05:29.133Z,1018.9
2017-02-09T07:15:41.681Z,1018.8
2017-02-09T07:25:54.303Z,1018.9
2017-02-09T07:36:06.788Z,1018.9
2017-02-09T07:46:19.426Z,1019
2017-02-09T07:56:32.013Z,1018.9
2017-02-09T08:06:44.416Z,1019
2017-02-09T08:16:56.871Z,1019.1
2017-02-09T08:27:09.209Z,1019.2
2017-02-09T08:37:21.561Z,1019.1
2017-02-09T08:47:33.845Z,1019.1
2017-02-09T08:57:46.080Z,1019
2017-02-09T09:07:58.402Z,1019
2017-02-09T09:18:10.654Z,1018.9
2017-02-09T09:28:22.937Z,1019
2017-02-09T09:38:35.182Z,1018.9
2017-02-09T09:48:47.370Z,1018.9
2017-02-09T09:58:59.505Z,1018.8
2017-02-09T10:09:11.657Z,1018.8
2017-02-09T10:19:23.793Z,1018.8
2017-02-09T10:29:35.914Z,1018.8
2017-02-09T10:39:48.024Z,1018.8
2017-02-09T10:50:00.090Z,1018.8
2017-02-09T11:00:12.138Z,1018.7
2017-02-09T11:10:24.126Z,1018.8
2017-02-09T11:20:36.038Z,1018.8
2017-02-09T11:30:47.891Z,1018.7
2017-02-09T11:40:59.669Z,1018.5
2017-02-09T11:51:11.399Z,1018.4
2017-02-09T12:01:23.102Z,1018.4
2017-02-09T12:11:34.880Z,1018.2
2017-02-09T12:21:46.682Z,1018.1
2017-02-09T12:31:58.473Z,1018.1
2017-02-09T12:42:10.278Z,1018
2017-02-09T12:52:22.198Z,1017.8
2017-02-09T13:02:34.087Z,1017.8
2017-02-09T13:12:45.946Z,1017.8
2017-02-09T13:22:57.816Z,1017.7
2017-02-09T13:33:09.622Z,1017.6
2017-02-09T13:43:21.419Z,1017.5
2017-02-09T13:53:33.257Z,1017.5
2017-02-09T14:03:45.184Z,1017.4
2017-02-09T14:13:57.169Z,1017.4
2017-02-09T14:24:09.182Z,1017.4
2017-02-09T14:34:21.287Z,1017.3
2017-02-09T14:44:33.363Z,1017.2
2017-02-09T14:54:45.370Z,1017
2017-02-09T15:04:57.443Z,1017
2017-02-09T15:15:09.467Z,1016.9
2017-02-09T15:25:21.539Z,1016.9
2017-02-09T15:35:33.674Z,1016.7
2017-02-09T15:45:45.828Z,1016.8
2017-02-09T15:55:58.091Z,1016.6
2017-02-09T16:06:10.418Z,1016.7
2017-02-09T16:16:22.727Z,1016.7
2017-02-09T16:26:35.097Z,1016.6
2017-02-09T16:36:47.549Z,1016.7
2017-02-09T16:46:59.988Z,1016.7
2017-02-09T16:57:12.484Z,1016.7
2017-02-09T17:07:24.968Z,1016.7
2017-02-09T17:17:37.502Z,1016.8
2017-02-09T17:27:50.045Z,1016.7
2017-02-09T17:38:02.631Z,1016.7
2017-02-09T17:48:15.134Z,1016.7
2017-02-09T17:58:27.621Z,1016.6
2017-02-09T18:08:40.151Z,1016.6
2017-02-09T18:18:52.694Z,1016.6
2017-02-09T18:29:05.234Z,1016.6
2017-02-09T18:39:17.739Z,1016.7
2017-02-09T18:49:30.268Z,1016.4
2017-02-09T18:59:42.801Z,1016.4
2017-02-09T19:09:55.283Z,1016.2
2017-02-09T19:20:07.756Z,1016.2
2017-02-09T19:30:20.239Z,1016.2
2017-02-09T19:40:32.756Z,1016.2
2017-02-09T19:50:45.255Z,1016.1
2017-02-09T20:00:57.770Z,1016.2
2017-02-09T20:11:10.292Z,1016.1
2017-02-09T20:21:22.840Z,1016.1
2017-02-09T20:31:35.431Z,1016.1
2017-02-09T20:41:47.987Z,1016
2017-02-09T20:52:00.608Z,1016
2017-02-09T21:02:13.262Z,1016
2017-02-09T21:12:25.866Z,1015.9
2017-02-09T21:22:38.441Z,1015.9
2017-02-09T21:32:51.036Z,1015.8
2017-02-09T21:43:03.590Z,1015.8
2017-02-09T21:53:16.238Z,1015.7
2017-02-09T22:03:28.854Z,1015.7
2017-02-09T22:13:41.537Z,1015.6
2017-02-09T22:23:54.184Z,1015.4
2017-02-09T22:34:06.925Z,1015.5
2017-02-09T22:44:19.539Z,1015.4
2017-02-09T22:54:32.267Z,1015.5
2017-02-09T23:04:44.961Z,1015.5
2017-02-09T23:14:57.600Z,1015.5
2017-02-09T23:25:10.270Z,1015.5
2017-02-09T23:35:22.948Z,1015.5
2017-02-09T23:45:35.594Z,1015.3
2017-02-09T23:55:48.270Z,1015.4
